Time;durP1;ratioP1;P1;durP2;ratioP2;P2;SDS_P1;SDS_P2;PMS_P1;PMS_P2;Temp;Humidity;BMP_temperature;BMP_pressure;BME280_temperature;BME280_humidity;BME280_pressure;Samples;Min_cycle;Max_cycle;Signal;HPM_P1;HPM_P2
2022/07/28 00:01:24;;;;;;;4.70;3.75;;;;;;;;;;4214784;28;20360;-73
2022/07/28 00:03:24;;;;;;;4.32;3.33;;;;;;;;;;4229438;28;20048;-75
2022/07/28 00:05:28;;;;;;;6.95;3.40;;;;;;;;;;4218977;28;20024;-73
2022/07/28 00:07:29;;;;;;;4.53;3.60;;;;;;;;;;4213648;28;20082;-74
2022/07/28 00:09:30;;;;;;;7.05;4.43;;;;;;;;;;4207629;28;20040;-75
2022/07/28 00:11:31;;;;;;;4.82;3.55;;;;;;;;;;4197134;28;20467;-73
2022/07/28 00:13:32;;;;;;;4.53;4.00;;;;;;;;;;4203071;28;20075;-73
2022/07/28 00:15:33;;;;;;;4.97;3.60;;;;;;;;;;4214183;28;20047;-73
2022/07/28 00:17:55;;;;;;;4.20;3.80;;;;;;;;;;4220769;28;20542;-73
2022/07/28 00:19:55;;;;;;;4.53;4.00;;;;;;;;;;4230335;28;20035;-73
2022/07/28 00:21:56;;;;;;;6.43;3.50;;;;;;;;;;4230595;28;20086;-73
2022/07/28 00:23:56;;;;;;;5.63;3.97;;;;;;;;;;4234466;28;20098;-73
2022/07/28 00:25:57;;;;;;;4.38;3.97;;;;;;;;;;4226124;28;20048;-73
2022/07/28 00:28:01;;;;;;;5.82;3.88;;;;;;;;;;4227979;28;20032;-73
2022/07/28 00:30:03;;;;;;;4.80;3.90;;;;;;;;;;4233491;28;20439;-73
2022/07/28 00:32:04;;;;;;;4.35;3.88;;;;;;;;;;4233705;28;20555;-73
2022/07/28 00:34:05;;;;;;;5.93;3.70;;;;;;;;;;4234022;28;20049;-73
2022/07/28 00:36:07;;;;;;;4.55;3.67;;;;;;;;;;4232473;28;20073;-74
2022/07/28 00:38:08;;;;;;;4.82;4.00;;;;;;;;;;4234196;28;20104;-73
2022/07/28 00:40:09;;;;;;;4.13;3.72;;;;;;;;;;4233794;28;20071;-73
2022/07/28 00:42:11;;;;;;;4.90;3.97;;;;;;;;;;4224195;28;20036;-73
2022/07/28 00:44:14;;;;;;;5.47;3.88;;;;;;;;;;4216248;28;20032;-73
2022/07/28 00:46:17;;;;;;;4.20;3.72;;;;;;;;;;4216907;28;20028;-73
2022/07/28 00:48:21;;;;;;;6.72;4.00;;;;;;;;;;4217152;28;20137;-73
2022/07/28 00:50:22;;;;;;;4.50;4.10;;;;;;;;;;4218869;28;20020;-72
2022/07/28 00:52:26;;;;;;;4.13;3.60;;;;;;;;;;4210334;28;20067;-73
2022/07/28 00:54:27;;;;;;;6.70;4.10;;;;;;;;;;4216350;28;20032;-73
2022/07/28 00:56:31;;;;;;;4.72;3.95;;;;;;;;;;4215739;28;20456;-73
2022/07/28 00:58:32;;;;;;;4.28;3.88;;;;;;;;;;4216863;28;20036;-74
2022/07/28 01:00:38;;;;;;;5.25;4.38;;;;;;;;;;4216370;28;20139;-74
2022/07/28 01:02:39;;;;;;;4.05;3.40;;;;;;;;;;4216679;28;20499;-73
2022/07/28 01:04:40;;;;;;;4.35;3.55;;;;;;;;;;4216565;28;20093;-72
2022/07/28 01:06:56;;;;;;;3.70;3.28;;;;;;;;;;4224229;28;20031;-74
2022/07/28 01:09:09;;;;;;;5.45;3.95;;;;;;;;;;4206334;28;20032;-73
2022/07/28 01:11:12;;;;;;;5.93;3.88;;;;;;;;;;4217331;28;20384;-73
2022/07/28 01:13:28;;;;;;;4.20;3.80;;;;;;;;;;4215504;28;20036;-74
2022/07/28 01:15:28;;;;;;;;;;;;;;;;;;4217030;28;20433;-73
2022/07/28 01:17:40;;;;;;;4.18;3.67;;;;;;;;;;4213583;28;19990;-74
2022/07/28 01:20:02;;;;;;;4.93;3.78;;;;;;;;;;4210655;28;20455;-72
2022/07/28 01:22:04;;;;;;;5.45;3.80;;;;;;;;;;4213595;28;20036;-72
2022/07/28 01:24:11;;;;;;;6.50;4.63;;;;;;;;;;4217078;28;20040;-74
2022/07/28 01:26:30;;;;;;;4.20;3.65;;;;;;;;;;4216265;28;20085;-73
2022/07/28 01:28:50;;;;;;;6.53;4.15;;;;;;;;;;4216049;28;20082;-73
2022/07/28 01:30:55;;;;;;;4.45;3.85;;;;;;;;;;4213000;28;20036;-74
2022/07/28 01:32:58;;;;;;;6.32;3.88;;;;;;;;;;4206678;28;20094;-75
2022/07/28 01:34:59;;;;;;;5.80;3.95;;;;;;;;;;4205096;28;20084;-73
2022/07/28 01:37:05;;;;;;;3.80;3.28;;;;;;;;;;4215972;28;20051;-74
2022/07/28 01:39:10;;;;;;;4.38;3.95;;;;;;;;;;4225207;28;20470;-74
2022/07/28 01:41:18;;;;;;;5.82;3.90;;;;;;;;;;4230990;28;20069;-74
2022/07/28 01:43:23;;;;;;;5.65;4.18;;;;;;;;;;4233094;28;20035;-73
2022/07/28 01:45:25;;;;;;;6.15;4.53;;;;;;;;;;4232253;28;20089;-75
2022/07/28 01:47:28;;;;;;;4.30;3.83;;;;;;;;;;4232983;28;20104;-71
2022/07/28 01:49:32;;;;;;;4.88;3.85;;;;;;;;;;4219791;28;20090;-74
2022/07/28 01:51:34;;;;;;;4.72;4.07;;;;;;;;;;4214628;28;20076;-73
2022/07/28 01:53:39;;;;;;;5.65;3.80;;;;;;;;;;4216872;28;20028;-73
2022/07/28 01:55:42;;;;;;;4.93;3.55;;;;;;;;;;4215326;28;20044;-76
2022/07/28 01:57:44;;;;;;;5.45;3.80;;;;;;;;;;4215569;28;20545;-75
2022/07/28 01:59:47;;;;;;;5.18;4.32;;;;;;;;;;4214347;28;20533;-72
2022/07/28 02:01:49;;;;;;;4.85;4.35;;;;;;;;;;4215893;28;20428;-75
2022/07/28 02:04:01;;;;;;;7.72;4.45;;;;;;;;;;4216220;28;20028;-73
2022/07/28 02:06:03;;;;;;;4.50;4.07;;;;;;;;;;4215608;28;20528;-73
2022/07/28 02:08:05;;;;;;;5.03;4.10;;;;;;;;;;4215840;28;20057;-73
2022/07/28 02:10:06;;;;;;;5.50;3.85;;;;;;;;;;4214807;28;20032;-74
2022/07/28 02:12:08;;;;;;;6.05;4.05;;;;;;;;;;4215328;28;20073;-74
2022/07/28 02:14:29;;;;;;;5.35;4.07;;;;;;;;;;4214804;28;20464;-74
2022/07/28 02:16:30;;;;;;;5.97;4.22;;;;;;;;;;4218258;28;20035;-73
2022/07/28 02:18:32;;;;;;;4.97;4.15;;;;;;;;;;4230791;28;20027;-73
2022/07/28 02:20:33;;;;;;;4.22;3.85;;;;;;;;;;4217373;28;20068;-74
2022/07/28 02:22:35;;;;;;;5.43;3.97;;;;;;;;;;4223628;28;20036;-74
2022/07/28 02:24:37;;;;;;;5.20;4.00;;;;;;;;;;4220879;28;20051;-73
2022/07/28 02:26:43;;;;;;;4.45;3.63;;;;;;;;;;4214025;28;20028;-73
2022/07/28 02:28:50;;;;;;;7.40;4.38;;;;;;;;;;4215170;28;20036;-72
2022/07/28 02:30:54;;;;;;;8.00;4.40;;;;;;;;;;4215454;28;20053;-73
2022/07/28 02:33:02;;;;;;;6.30;4.53;;;;;;;;;;4215461;28;20040;-73
2022/07/28 02:37:33;;;;;;;6.22;4.32;;;;;;;;;;4209822;28;20094;-73
2022/07/28 02:39:45;;;;;;;5.15;4.20;;;;;;;;;;4229812;28;20356;-75
2022/07/28 02:41:50;;;;;;;5.97;4.00;;;;;;;;;;4231778;28;21069;-78
2022/07/28 02:43:52;;;;;;;5.95;4.70;;;;;;;;;;4231914;28;20051;-75
2022/07/28 02:45:55;;;;;;;7.50;3.70;;;;;;;;;;4212983;28;20044;-73
2022/07/28 02:47:59;;;;;;;4.40;3.90;;;;;;;;;;4213647;28;20429;-74
2022/07/28 02:50:01;;;;;;;8.10;4.13;;;;;;;;;;4231488;28;20097;-73
2022/07/28 02:52:04;;;;;;;6.93;5.10;;;;;;;;;;4231920;28;20455;-72
2022/07/28 02:54:06;;;;;;;7.53;4.50;;;;;;;;;;4229824;28;20069;-72
2022/07/28 02:56:08;;;;;;;4.85;4.35;;;;;;;;;;4213887;28;20043;-73
2022/07/28 02:58:13;;;;;;;5.32;3.95;;;;;;;;;;4201706;28;20029;-74
2022/07/28 03:00:14;;;;;;;5.97;4.65;;;;;;;;;;4198113;28;20086;-73
2022/07/28 03:02:21;;;;;;;4.47;4.05;;;;;;;;;;4211818;28;20529;-76
2022/07/28 03:06:42;;;;;;;7.80;4.22;;;;;;;;;;4216370;28;20340;-73
2022/07/28 03:08:43;;;;;;;5.00;3.60;;;;;;;;;;4214915;28;20042;-74
2022/07/28 03:10:47;;;;;;;4.57;4.15;;;;;;;;;;4214344;28;20462;-75
2022/07/28 03:12:47;;;;;;;5.30;4.00;;;;;;;;;;4213397;28;20093;-71
2022/07/28 03:14:51;;;;;;;5.55;4.38;;;;;;;;;;4215459;28;20032;-75
2022/07/28 03:16:52;;;;;;;5.35;3.75;;;;;;;;;;4215310;28;20040;-75
2022/07/28 03:18:53;;;;;;;4.10;3.80;;;;;;;;;;4215091;28;20427;-76
2022/07/28 03:20:54;;;;;;;5.38;4.10;;;;;;;;;;4214992;28;20467;-74
2022/07/28 03:22:57;;;;;;;4.63;3.90;;;;;;;;;;4215071;28;20429;-76
2022/07/28 03:24:58;;;;;;;6.07;3.97;;;;;;;;;;4213802;28;20093;-77
2022/07/28 03:27:06;;;;;;;6.07;4.28;;;;;;;;;;4210172;28;20035;-76
2022/07/28 03:29:09;;;;;;;5.82;4.20;;;;;;;;;;4216056;28;20024;-75
2022/07/28 03:31:10;;;;;;;4.60;4.13;;;;;;;;;;4225127;28;20031;-74
2022/07/28 03:33:14;;;;;;;6.65;3.83;;;;;;;;;;4219711;28;20560;-72
2022/07/28 03:35:14;;;;;;;4.00;3.60;;;;;;;;;;4214460;28;20463;-73
2022/07/28 03:37:19;;;;;;;4.10;3.70;;;;;;;;;;4209146;28;20436;-74
2022/07/28 03:39:21;;;;;;;3.95;3.63;;;;;;;;;;4227597;28;20093;-73
2022/07/28 03:41:24;;;;;;;6.45;4.10;;;;;;;;;;4230720;28;20092;-78
2022/07/28 03:43:25;;;;;;;4.80;3.72;;;;;;;;;;4226194;28;20397;-76
2022/07/28 03:45:26;;;;;;;4.68;3.78;;;;;;;;;;4214361;28;20089;-75
2022/07/28 03:47:29;;;;;;;4.30;3.72;;;;;;;;;;4214822;28;20012;-76
2022/07/28 03:49:32;;;;;;;5.25;4.45;;;;;;;;;;4214159;28;20036;-76
2022/07/28 03:51:33;;;;;;;5.57;4.50;;;;;;;;;;4214614;28;20432;-76
2022/07/28 03:53:35;;;;;;;4.20;3.80;;;;;;;;;;4214536;28;20032;-75
2022/07/28 03:55:36;;;;;;;9.02;3.70;;;;;;;;;;4214190;28;20426;-77
2022/07/28 03:57:46;;;;;;;8.25;3.95;;;;;;;;;;4213616;28;20047;-75
2022/07/28 03:59:46;;;;;;;4.45;4.00;;;;;;;;;;4230341;28;20088;-76
2022/07/28 04:01:47;;;;;;;7.55;4.55;;;;;;;;;;4219159;28;20035;-76
2022/07/28 04:03:48;;;;;;;10.35;3.90;;;;;;;;;;4214409;28;20111;-75
2022/07/28 04:05:49;;;;;;;4.90;3.88;;;;;;;;;;4220170;28;20023;-76
2022/07/28 04:07:50;;;;;;;5.53;3.83;;;;;;;;;;4216695;28;20043;-76
2022/07/28 04:09:51;;;;;;;7.07;4.00;;;;;;;;;;4213722;28;20020;-76
2022/07/28 04:11:52;;;;;;;5.15;3.80;;;;;;;;;;4214540;28;20380;-76
2022/07/28 04:13:54;;;;;;;6.20;3.70;;;;;;;;;;4214454;28;20016;-77
2022/07/28 04:15:55;;;;;;;5.68;3.92;;;;;;;;;;4214596;28;20028;-75
2022/07/28 04:17:56;;;;;;;8.07;4.53;;;;;;;;;;4214206;28;20435;-78
2022/07/28 04:19:57;;;;;;;5.20;4.00;;;;;;;;;;4212274;28;20471;-74
2022/07/28 04:21:57;;;;;;;6.65;4.35;;;;;;;;;;4214412;28;20110;-75
2022/07/28 04:24:01;;;;;;;6.20;3.97;;;;;;;;;;4213844;28;20051;-75
2022/07/28 04:26:02;;;;;;;6.63;3.78;;;;;;;;;;4214498;28;20024;-75
2022/07/28 04:28:03;;;;;;;8.93;3.78;;;;;;;;;;4214016;28;20494;-76
2022/07/28 04:30:05;;;;;;;6.18;3.90;;;;;;;;;;4213565;28;20028;-75
2022/07/28 04:32:05;;;;;;;5.20;4.20;;;;;;;;;;4214378;28;20025;-73
2022/07/28 04:34:06;;;;;;;5.70;4.10;;;;;;;;;;4214005;28;20059;-75
2022/07/28 04:36:07;;;;;;;6.18;4.03;;;;;;;;;;4213322;28;20198;-75
2022/07/28 04:38:09;;;;;;;5.70;4.50;;;;;;;;;;4213760;28;20039;-74
2022/07/28 04:40:10;;;;;;;9.27;4.32;;;;;;;;;;4213741;28;20020;-73
2022/07/28 04:42:15;;;;;;;3.95;3.47;;;;;;;;;;4213560;28;20036;-75
2022/07/28 04:44:18;;;;;;;5.47;4.20;;;;;;;;;;4213791;28;20048;-73
2022/07/28 04:46:19;;;;;;;5.10;3.67;;;;;;;;;;4213792;28;20028;-74
2022/07/28 04:48:21;;;;;;;4.35;3.58;;;;;;;;;;4213897;28;20043;-73
2022/07/28 04:50:22;;;;;;;4.60;3.75;;;;;;;;;;4213418;28;20028;-72
2022/07/28 04:52:25;;;;;;;5.55;4.07;;;;;;;;;;4213613;28;20447;-73
2022/07/28 04:54:26;;;;;;;4.43;3.63;;;;;;;;;;4212766;28;20012;-73
2022/07/28 04:56:27;;;;;;;4.30;3.90;;;;;;;;;;4213851;28;20134;-73
2022/07/28 04:58:31;;;;;;;7.03;4.07;;;;;;;;;;4213899;28;20459;-73
2022/07/28 05:00:32;;;;;;;5.70;3.97;;;;;;;;;;4213799;28;20024;-72
2022/07/28 05:02:32;;;;;;;6.85;3.95;;;;;;;;;;4213801;28;20062;-73
2022/07/28 05:04:33;;;;;;;4.13;3.72;;;;;;;;;;4213734;28;20418;-73
2022/07/28 05:06:37;;;;;;;4.45;3.95;;;;;;;;;;4213515;28;20081;-73
2022/07/28 05:08:38;;;;;;;4.68;4.20;;;;;;;;;;4214498;28;20028;-73
2022/07/28 05:10:42;;;;;;;4.68;3.92;;;;;;;;;;4214372;28;20032;-72
2022/07/28 05:12:44;;;;;;;4.63;4.05;;;;;;;;;;4216683;28;20475;-72
2022/07/28 05:14:47;;;;;;;3.97;3.50;;;;;;;;;;4216606;28;20555;-73
2022/07/28 05:16:48;;;;;;;4.85;3.83;;;;;;;;;;4217182;28;20024;-73
2022/07/28 05:18:49;;;;;;;4.43;4.03;;;;;;;;;;4216660;28;20062;-72
2022/07/28 05:20:50;;;;;;;5.07;4.05;;;;;;;;;;4216563;28;20119;-73
2022/07/28 05:22:52;;;;;;;3.88;3.47;;;;;;;;;;4216989;28;20063;-73
2022/07/28 05:24:54;;;;;;;6.88;3.75;;;;;;;;;;4216829;28;20039;-73
2022/07/28 05:26:54;;;;;;;4.22;3.83;;;;;;;;;;4215411;28;20036;-73
2022/07/28 05:28:55;;;;;;;4.15;3.75;;;;;;;;;;4216094;28;20439;-73
2022/07/28 05:30:56;;;;;;;6.05;3.58;;;;;;;;;;4216267;28;20064;-73
2022/07/28 05:33:00;;;;;;;4.30;3.83;;;;;;;;;;4232067;28;20555;-73
2022/07/28 05:35:01;;;;;;;6.10;3.67;;;;;;;;;;4233519;28;21273;-71
2022/07/28 05:37:02;;;;;;;7.03;3.75;;;;;;;;;;4233614;28;20047;-72
2022/07/28 05:39:03;;;;;;;6.07;3.80;;;;;;;;;;4232378;28;20027;-72
2022/07/28 05:41:05;;;;;;;4.93;3.80;;;;;;;;;;4232690;28;20031;-72
2022/07/28 05:43:06;;;;;;;4.15;3.75;;;;;;;;;;4233148;28;20439;-72
2022/07/28 05:45:07;;;;;;;4.00;3.60;;;;;;;;;;4215831;28;20040;-73
2022/07/28 05:47:08;;;;;;;3.67;3.38;;;;;;;;;;4216107;28;20039;-72
2022/07/28 05:49:12;;;;;;;3.42;3.13;;;;;;;;;;4215363;28;20036;-72
2022/07/28 05:51:13;;;;;;;4.10;3.70;;;;;;;;;;4215891;28;20032;-72
2022/07/28 05:53:14;;;;;;;4.28;3.75;;;;;;;;;;4216331;28;20032;-72
2022/07/28 05:55:18;;;;;;;4.85;3.42;;;;;;;;;;4216086;28;20083;-72
2022/07/28 05:57:19;;;;;;;6.40;4.30;;;;;;;;;;4216236;28;20098;-72
2022/07/28 05:59:20;;;;;;;3.67;3.35;;;;;;;;;;4215963;28;20040;-72
2022/07/28 06:01:20;;;;;;;4.05;3.30;;;;;;;;;;4214853;28;20031;-72
2022/07/28 06:03:21;;;;;;;3.75;3.40;;;;;;;;;;4215758;28;20039;-73
2022/07/28 06:05:22;;;;;;;5.00;3.67;;;;;;;;;;4215833;28;20032;-73
2022/07/28 06:07:23;;;;;;;5.35;3.75;;;;;;;;;;4215583;28;20420;-73
2022/07/28 06:09:24;;;;;;;5.22;3.70;;;;;;;;;;4215799;28;20024;-73
2022/07/28 06:11:25;;;;;;;3.47;3.17;;;;;;;;;;4215719;28;20489;-73
2022/07/28 06:13:26;;;;;;;3.63;3.33;;;;;;;;;;4216062;28;20059;-73
2022/07/28 06:15:27;;;;;;;3.80;3.47;;;;;;;;;;4215993;28;20069;-73
2022/07/28 06:17:28;;;;;;;4.95;3.67;;;;;;;;;;4216148;28;20048;-73
2022/07/28 06:19:28;;;;;;;4.85;3.50;;;;;;;;;;4213658;28;20063;-73
2022/07/28 06:21:32;;;;;;;4.38;3.38;;;;;;;;;;4214843;28;20040;-73
2022/07/28 06:23:33;;;;;;;3.85;3.45;;;;;;;;;;4215997;28;20024;-73
2022/07/28 06:25:34;;;;;;;4.03;3.58;;;;;;;;;;4215992;28;20038;-73
2022/07/28 06:27:35;;;;;;;3.85;3.50;;;;;;;;;;4214755;28;20094;-72
2022/07/28 06:29:36;;;;;;;4.80;3.55;;;;;;;;;;4215401;28;20099;-73
2022/07/28 06:31:37;;;;;;;4.30;3.65;;;;;;;;;;4215389;28;20585;-74
2022/07/28 06:33:38;;;;;;;4.72;3.75;;;;;;;;;;4215298;28;20131;-74
2022/07/28 06:35:39;;;;;;;4.13;3.60;;;;;;;;;;4214510;28;20016;-73
2022/07/28 06:37:43;;;;;;;4.03;3.63;;;;;;;;;;4215739;28;20038;-74
2022/07/28 06:39:44;;;;;;;5.68;3.58;;;;;;;;;;4214689;28;20036;-72
2022/07/28 06:41:45;;;;;;;3.63;3.33;;;;;;;;;;4215717;28;20146;-73
2022/07/28 06:43:45;;;;;;;4.28;3.83;;;;;;;;;;4215582;28;20030;-73
2022/07/28 06:45:46;;;;;;;4.15;3.75;;;;;;;;;;4214988;28;20036;-72
2022/07/28 06:47:48;;;;;;;4.18;3.78;;;;;;;;;;4215500;28;20090;-73
2022/07/28 06:49:49;;;;;;;3.85;3.53;;;;;;;;;;4214833;28;20097;-73
2022/07/28 06:51:49;;;;;;;3.75;3.35;;;;;;;;;;4215333;28;20031;-72
2022/07/28 06:53:51;;;;;;;3.47;3.17;;;;;;;;;;4215397;28;20036;-72
2022/07/28 06:55:54;;;;;;;3.97;3.63;;;;;;;;;;4215364;28;20091;-72
2022/07/28 06:57:57;;;;;;;3.63;3.33;;;;;;;;;;4214945;28;20089;-72
2022/07/28 06:59:58;;;;;;;3.80;3.10;;;;;;;;;;4214869;28;20031;-72
2022/07/28 07:02:01;;;;;;;4.15;3.80;;;;;;;;;;4215303;28;20167;-73
2022/07/28 07:04:02;;;;;;;3.70;3.40;;;;;;;;;;4213934;28;20035;-72
2022/07/28 07:06:05;;;;;;;6.43;3.40;;;;;;;;;;4214854;28;20028;-72
2022/07/28 07:08:06;;;;;;;4.03;3.63;;;;;;;;;;4214794;28;20032;-72
2022/07/28 07:10:10;;;;;;;4.43;3.45;;;;;;;;;;4214609;28;20456;-72
2022/07/28 07:12:11;;;;;;;5.90;3.37;;;;;;;;;;4214774;28;20035;-72
2022/07/28 07:14:12;;;;;;;3.50;3.20;;;;;;;;;;4215190;28;20056;-72
2022/07/28 07:16:18;;;;;;;3.67;3.38;;;;;;;;;;4214591;28;20043;-72
2022/07/28 07:18:19;;;;;;;3.80;3.40;;;;;;;;;;4215103;28;20077;-73
2022/07/28 07:20:20;;;;;;;3.75;3.45;;;;;;;;;;4214822;28;20020;-72
2022/07/28 07:22:21;;;;;;;4.00;3.40;;;;;;;;;;4212932;28;20093;-72
2022/07/28 07:24:22;;;;;;;4.05;3.65;;;;;;;;;;4220727;28;20502;-71
2022/07/28 07:26:23;;;;;;;3.63;3.33;;;;;;;;;;4215108;28;20093;-72
2022/07/28 07:28:24;;;;;;;3.80;3.50;;;;;;;;;;4214626;28;20040;-72
2022/07/28 07:30:25;;;;;;;3.85;3.25;;;;;;;;;;4214550;28;20432;-73
2022/07/28 07:32:26;;;;;;;3.80;3.10;;;;;;;;;;4213991;28;20099;-72
2022/07/28 07:34:27;;;;;;;3.88;3.47;;;;;;;;;;4214813;28;20027;-72
2022/07/28 07:36:33;;;;;;;4.90;3.58;;;;;;;;;;4214695;28;20430;-73
2022/07/28 07:38:34;;;;;;;3.90;3.60;;;;;;;;;;4213583;28;20040;-73
2022/07/28 07:40:38;;;;;;;3.38;3.08;;;;;;;;;;4213885;28;20032;-72
2022/07/28 07:42:39;;;;;;;3.40;3.10;;;;;;;;;;4214521;28;20090;-72
2022/07/28 07:44:40;;;;;;;3.78;3.47;;;;;;;;;;4214507;28;20040;-72
2022/07/28 07:46:40;;;;;;;3.65;3.35;;;;;;;;;;4214592;28;20054;-72
2022/07/28 07:48:42;;;;;;;4.35;3.40;;;;;;;;;;4214371;28;20070;-72
2022/07/28 07:50:43;;;;;;;3.40;3.10;;;;;;;;;;4214171;28;20085;-73
2022/07/28 07:52:44;;;;;;;4.57;3.50;;;;;;;;;;4214553;28;20023;-73
2022/07/28 07:54:45;;;;;;;4.43;4.05;;;;;;;;;;4214474;28;20028;-73
2022/07/28 07:56:46;;;;;;;4.15;3.50;;;;;;;;;;4214446;28;20432;-73
2022/07/28 07:58:48;;;;;;;3.90;3.50;;;;;;;;;;4214445;28;20036;-73
2022/07/28 08:00:49;;;;;;;3.40;3.10;;;;;;;;;;4214114;28;20031;-73
2022/07/28 08:02:50;;;;;;;3.65;3.35;;;;;;;;;;4213757;28;20101;-73
2022/07/28 08:04:54;;;;;;;3.53;3.22;;;;;;;;;;4214222;28;20067;-74
2022/07/28 08:06:55;;;;;;;3.38;3.08;;;;;;;;;;4212115;28;20036;-73
2022/07/28 08:08:56;;;;;;;4.15;3.45;;;;;;;;;;4213471;28;20036;-73
2022/07/28 08:10:56;;;;;;;3.58;3.28;;;;;;;;;;4212782;28;20070;-73
2022/07/28 08:12:57;;;;;;;4.30;3.90;;;;;;;;;;4213797;28;20114;-73
2022/07/28 08:14:58;;;;;;;3.30;3.08;;;;;;;;;;4213809;28;20405;-72
2022/07/28 08:16:59;;;;;;;4.03;3.35;;;;;;;;;;4213137;28;20031;-73
2022/07/28 08:19:00;;;;;;;3.65;3.35;;;;;;;;;;4213500;28;20024;-73
2022/07/28 08:21:01;;;;;;;3.70;3.40;;;;;;;;;;4214072;28;20031;-71
2022/07/28 08:23:05;;;;;;;3.50;2.92;;;;;;;;;;4213940;28;20093;-73
2022/07/28 08:25:06;;;;;;;3.50;3.20;;;;;;;;;;4212406;28;20116;-73
2022/07/28 08:27:10;;;;;;;5.00;3.40;;;;;;;;;;4213898;28;20081;-73
2022/07/28 08:29:11;;;;;;;4.10;3.63;;;;;;;;;;4213489;28;20439;-74
2022/07/28 08:31:12;;;;;;;3.25;2.92;;;;;;;;;;4214350;28;20024;-73
2022/07/28 08:33:20;;;;;;;3.47;3.17;;;;;;;;;;4213797;28;20040;-74
2022/07/28 08:35:27;;;;;;;3.58;3.25;;;;;;;;;;4214386;28;20008;-72
2022/07/28 08:37:28;;;;;;;3.83;3.47;;;;;;;;;;4214223;28;20028;-73
2022/07/28 08:39:30;;;;;;;3.45;3.15;;;;;;;;;;4213837;28;20020;-77
2022/07/28 08:41:57;;;;;;;3.72;3.42;;;;;;;;;;4213719;28;20078;-72
2022/07/28 08:43:58;;;;;;;3.58;3.28;;;;;;;;;;4212530;28;20036;-73
2022/07/28 08:46:05;;;;;;;3.10;2.90;;;;;;;;;;4217122;28;20044;-73
2022/07/28 08:48:10;;;;;;;3.40;3.10;;;;;;;;;;4217254;28;20040;-73
2022/07/28 08:50:12;;;;;;;5.20;3.22;;;;;;;;;;4216728;28;20107;-73
2022/07/28 08:52:13;;;;;;;3.30;3.00;;;;;;;;;;4217016;28;20070;-73
2022/07/28 08:54:19;;;;;;;3.75;3.45;;;;;;;;;;4216930;28;20364;-73
2022/07/28 08:56:23;;;;;;;3.63;3.30;;;;;;;;;;4216659;28;20052;-73
2022/07/28 08:58:24;;;;;;;3.47;3.17;;;;;;;;;;4216796;28;20440;-72
2022/07/28 09:00:25;;;;;;;3.92;3.10;;;;;;;;;;4216644;28;20024;-72
2022/07/28 09:02:28;;;;;;;3.47;3.10;;;;;;;;;;4215298;28;20082;-73
2022/07/28 09:04:28;;;;;;;5.32;2.88;;;;;;;;;;4217222;28;20081;-73
2022/07/28 09:06:32;;;;;;;3.88;3.50;;;;;;;;;;4216677;28;20123;-74
2022/07/28 09:08:33;;;;;;;3.45;3.15;;;;;;;;;;4216824;28;20031;-73
2022/07/28 09:10:34;;;;;;;3.10;2.83;;;;;;;;;;4216871;28;20024;-73
2022/07/28 09:12:35;;;;;;;3.67;2.80;;;;;;;;;;4217056;28;20031;-73
2022/07/28 09:14:39;;;;;;;3.20;2.90;;;;;;;;;;4216621;28;20035;-74
2022/07/28 09:16:40;;;;;;;3.40;3.10;;;;;;;;;;4217018;28;20024;-73
2022/07/28 09:18:41;;;;;;;3.72;3.17;;;;;;;;;;4216477;28;20476;-72
2022/07/28 09:20:42;;;;;;;2.90;2.58;;;;;;;;;;4213424;28;20028;-75
2022/07/28 09:23:00;;;;;;;3.47;2.83;;;;;;;;;;4216528;28;20036;-73
2022/07/28 09:25:02;;;;;;;3.58;3.28;;;;;;;;;;4216469;28;20552;-73
2022/07/28 09:27:10;;;;;;;3.47;3.13;;;;;;;;;;4216575;28;20028;-73
2022/07/28 09:29:11;;;;;;;3.30;3.00;;;;;;;;;;4228600;28;20090;-73
2022/07/28 09:31:12;;;;;;;3.20;2.90;;;;;;;;;;4233597;28;20038;-72
2022/07/28 09:33:15;;;;;;;5.45;3.10;;;;;;;;;;4233338;28;20107;-73
2022/07/28 09:35:19;;;;;;;3.97;3.00;;;;;;;;;;4227832;28;20024;-73
2022/07/28 09:37:21;;;;;;;3.55;3.25;;;;;;;;;;4216212;28;20062;-73
2022/07/28 09:39:28;;;;;;;3.20;2.95;;;;;;;;;;4215954;28;20438;-73
2022/07/28 09:41:44;;;;;;;4.50;2.97;;;;;;;;;;4216177;28;20093;-73
2022/07/28 09:43:45;;;;;;;4.10;3.70;;;;;;;;;;4216498;28;20082;-73
2022/07/28 09:45:46;;;;;;;3.33;3.05;;;;;;;;;;4216379;28;20047;-73
2022/07/28 09:47:47;;;;;;;4.70;3.58;;;;;;;;;;4216243;28;20375;-73
2022/07/28 09:49:48;;;;;;;3.38;3.08;;;;;;;;;;4215990;28;20554;-73
2022/07/28 09:52:00;;;;;;;3.33;3.03;;;;;;;;;;4214683;28;20081;-73
2022/07/28 09:54:10;;;;;;;3.47;3.17;;;;;;;;;;4216355;28;20035;-74
2022/07/28 09:56:12;;;;;;;3.97;3.25;;;;;;;;;;4214814;28;20097;-74
2022/07/28 09:58:13;;;;;;;3.45;3.15;;;;;;;;;;4215744;28;20048;-74
2022/07/28 10:00:23;;;;;;;3.38;3.08;;;;;;;;;;4214428;28;20039;-74
2022/07/28 10:02:25;;;;;;;3.22;2.92;;;;;;;;;;4216272;28;20020;-73
2022/07/28 10:04:35;;;;;;;3.47;3.17;;;;;;;;;;4216231;28;20081;-74
2022/07/28 10:06:39;;;;;;;3.75;3.40;;;;;;;;;;4214897;28;20044;-74
2022/07/28 10:08:40;;;;;;;3.60;3.00;;;;;;;;;;4216142;28;20089;-74
2022/07/28 10:10:41;;;;;;;3.28;2.97;;;;;;;;;;4215885;28;20028;-73
2022/07/28 10:12:42;;;;;;;4.68;3.08;;;;;;;;;;4216216;28;20024;-72
2022/07/28 10:14:45;;;;;;;3.30;3.00;;;;;;;;;;4215579;28;20028;-73
2022/07/28 10:16:51;;;;;;;4.15;3.78;;;;;;;;;;4215668;28;20040;-73
2022/07/28 10:18:52;;;;;;;4.00;3.20;;;;;;;;;;4229314;28;20032;-73
2022/07/28 10:20:54;;;;;;;5.18;3.13;;;;;;;;;;4232961;28;20080;-73
2022/07/28 10:23:00;;;;;;;3.10;2.80;;;;;;;;;;4232736;28;20089;-73
2022/07/28 10:25:04;;;;;;;3.45;3.15;;;;;;;;;;4227098;28;20424;-73
2022/07/28 10:27:05;;;;;;;3.13;2.83;;;;;;;;;;4215457;28;20032;-73
2022/07/28 10:29:07;;;;;;;3.40;3.00;;;;;;;;;;4216675;28;20422;-73
2022/07/28 10:31:11;;;;;;;3.35;3.05;;;;;;;;;;4215944;28;20033;-74
2022/07/28 10:33:13;;;;;;;4.00;2.95;;;;;;;;;;4215576;28;20090;-74
2022/07/28 10:35:15;;;;;;;3.47;3.17;;;;;;;;;;4214894;28;20024;-74
2022/07/28 10:37:29;;;;;;;3.75;3.45;;;;;;;;;;4215001;28;20085;-73
2022/07/28 10:39:37;;;;;;;3.85;2.75;;;;;;;;;;4215679;28;20020;-73
2022/07/28 10:41:42;;;;;;;3.40;3.10;;;;;;;;;;4215672;28;20023;-74
2022/07/28 10:43:43;;;;;;;3.58;3.10;;;;;;;;;;4214337;28;20160;-72
2022/07/28 10:45:47;;;;;;;3.67;3.38;;;;;;;;;;4214764;28;20044;-74
2022/07/28 10:47:48;;;;;;;3.17;2.88;;;;;;;;;;4226037;28;20466;-77
2022/07/28 10:49:49;;;;;;;3.30;3.00;;;;;;;;;;4231853;28;20036;-76
2022/07/28 10:51:50;;;;;;;3.42;3.10;;;;;;;;;;4232082;28;20035;-75
2022/07/28 10:53:52;;;;;;;4.80;3.05;;;;;;;;;;4232405;28;20023;-76
2022/07/28 10:56:06;;;;;;;3.22;2.92;;;;;;;;;;4231888;28;20092;-75
2022/07/28 10:58:12;;;;;;;4.38;3.10;;;;;;;;;;4232382;28;20043;-75
2022/07/28 11:00:16;;;;;;;3.10;2.80;;;;;;;;;;4231792;28;20432;-75
2022/07/28 11:02:40;;;;;;;4.60;3.30;;;;;;;;;;4232100;28;20409;-73
2022/07/28 11:04:51;;;;;;;3.20;3.00;;;;;;;;;;4221043;28;20043;-74
2022/07/28 11:07:07;;;;;;;2.88;2.67;;;;;;;;;;4226147;27;20028;-73
2022/07/28 11:09:14;;;;;;;3.72;3.38;;;;;;;;;;4228712;28;20036;-73
2022/07/28 11:11:35;;;;;;;4.63;2.70;;;;;;;;;;4232156;28;20024;-75
2022/07/28 11:13:36;;;;;;;4.00;3.17;;;;;;;;;;4231838;28;20458;-76
2022/07/28 11:15:37;;;;;;;3.42;3.08;;;;;;;;;;4231840;28;20039;-73
2022/07/28 11:17:37;;;;;;;3.13;2.83;;;;;;;;;;4231936;28;20024;-74
2022/07/28 11:19:44;;;;;;;2.97;2.70;;;;;;;;;;4230757;28;20042;-75
2022/07/28 11:22:03;;;;;;;3.15;2.90;;;;;;;;;;4231404;28;20471;-74
2022/07/28 11:24:04;;;;;;;3.50;3.20;;;;;;;;;;4198308;28;20024;-75
2022/07/28 11:26:23;;;;;;;3.30;3.00;;;;;;;;;;4198196;28;20110;-73
2022/07/28 11:28:25;;;;;;;3.78;3.33;;;;;;;;;;4198280;28;20024;-74
2022/07/28 11:30:32;;;;;;;3.47;2.88;;;;;;;;;;4197881;28;20013;-75
2022/07/28 11:32:54;;;;;;;3.33;3.03;;;;;;;;;;4198014;28;20032;-74
2022/07/28 11:35:08;;;;;;;3.60;3.30;;;;;;;;;;4198184;28;20025;-74
2022/07/28 11:37:09;;;;;;;3.40;2.97;;;;;;;;;;4218180;28;20426;-75
2022/07/28 11:39:30;;;;;;;3.05;2.85;;;;;;;;;;4228657;28;20019;-75
2022/07/28 11:41:31;;;;;;;2.88;2.67;;;;;;;;;;4214432;28;20081;-75
2022/07/28 11:43:33;;;;;;;3.10;2.80;;;;;;;;;;4215273;28;20395;-74
2022/07/28 11:45:34;;;;;;;3.20;2.80;;;;;;;;;;4214657;28;20036;-73
2022/07/28 11:47:35;;;;;;;3.45;2.97;;;;;;;;;;4214122;28;20031;-73
2022/07/28 11:49:37;;;;;;;3.38;3.08;;;;;;;;;;4213316;28;20024;-74
2022/07/28 11:51:37;;;;;;;3.22;2.92;;;;;;;;;;4214390;28;20032;-73
2022/07/28 11:53:45;;;;;;;3.45;3.15;;;;;;;;;;4214394;28;20044;-73
2022/07/28 11:55:52;;;;;;;2.78;2.58;;;;;;;;;;4213895;28;20036;-73
2022/07/28 11:57:52;;;;;;;2.95;2.75;;;;;;;;;;4210145;28;20093;-73
2022/07/28 11:59:57;;;;;;;3.40;3.10;;;;;;;;;;4214270;28;20367;-73
2022/07/28 12:01:58;;;;;;;2.95;2.75;;;;;;;;;;4214039;28;20036;-73
2022/07/28 12:03:59;;;;;;;3.13;2.80;;;;;;;;;;4214839;28;20428;-73
2022/07/28 12:06:00;;;;;;;3.95;3.30;;;;;;;;;;4214406;28;20530;-75
2022/07/28 12:08:01;;;;;;;3.67;2.85;;;;;;;;;;4223977;28;20023;-74
2022/07/28 12:10:25;;;;;;;5.35;3.17;;;;;;;;;;4216560;28;20068;-76
2022/07/28 12:12:29;;;;;;;3.42;2.88;;;;;;;;;;4202685;28;20049;-75
2022/07/28 12:14:36;;;;;;;4.13;3.20;;;;;;;;;;4211022;28;20069;-74
2022/07/28 12:16:38;;;;;;;3.13;2.83;;;;;;;;;;4214575;28;20318;-68
2022/07/28 12:18:39;;;;;;;3.72;3.22;;;;;;;;;;4214081;28;20456;-75
2022/07/28 12:20:51;;;;;;;4.75;2.90;;;;;;;;;;4214962;28;20063;-77
2022/07/28 12:22:56;;;;;;;3.53;3.00;;;;;;;;;;4214338;28;20020;-78
2022/07/28 12:24:57;;;;;;;;;;;;;;;;;;4213862;28;20413;-78